Time;durP1;ratioP1;P1;durP2;ratioP2;P2;SDS_P1;SDS_P2;PMS_P1;PMS_P2;Temp;Humidity;BMP_temperature;BMP_pressure;BME280_temperature;BME280_humidity;BME280_pressure;Samples;Min_cycle;Max_cycle;Signal;HPM_P1;HPM_P2
2023/11/03 00:00:00;;;;;;;2.25;1.15;;;;;;;;;;5910042;28;20052;-67
2023/11/03 00:02:51;;;;;;;1.42;1.33;;;;;;;;;;5909999;28;20052;-67
2023/11/03 00:05:42;;;;;;;3.08;1.70;;;;;;;;;;5909633;28;20052;-67
2023/11/03 00:08:33;;;;;;;1.38;1.00;;;;;;;;;;5909522;28;20049;-67
2023/11/03 00:11:24;;;;;;;1.55;1.35;;;;;;;;;;5909691;28;20601;-67
2023/11/03 00:14:16;;;;;;;2.35;1.60;;;;;;;;;;5909327;28;20056;-67
2023/11/03 00:17:07;;;;;;;1.75;0.85;;;;;;;;;;5909506;28;20045;-67
2023/11/03 00:19:58;;;;;;;1.23;1.10;;;;;;;;;;5909827;28;20055;-67
2023/11/03 00:22:49;;;;;;;1.77;1.42;;;;;;;;;;5909119;28;20059;-67
2023/11/03 00:25:39;;;;;;;2.20;1.42;;;;;;;;;;5909459;28;20051;-67
2023/11/03 00:28:30;;;;;;;1.95;1.30;;;;;;;;;;5909217;28;20044;-67
2023/11/03 00:31:22;;;;;;;3.72;1.10;;;;;;;;;;5909408;28;20062;-67
2023/11/03 00:34:13;;;;;;;1.55;1.08;;;;;;;;;;5909366;28;20076;-67
2023/11/03 00:37:04;;;;;;;3.33;1.63;;;;;;;;;;5909406;28;20044;-68
2023/11/03 00:39:55;;;;;;;9.50;1.23;;;;;;;;;;5909549;28;20075;-67
2023/11/03 00:42:46;;;;;;;0.60;0.60;;;;;;;;;;5909444;28;20072;-67
2023/11/03 00:45:36;;;;;;;1.00;0.80;;;;;;;;;;5914051;28;20070;-67
2023/11/03 00:48:27;;;;;;;9.88;1.90;;;;;;;;;;5913809;28;20425;-68
2023/11/03 00:51:18;;;;;;;3.05;1.05;;;;;;;;;;5913987;28;20498;-67
2023/11/03 00:54:09;;;;;;;2.38;1.10;;;;;;;;;;5913635;28;20494;-68
2023/11/03 00:57:01;;;;;;;1.67;1.20;;;;;;;;;;5913799;28;20049;-69
2023/11/03 00:59:52;;;;;;;0.95;0.82;;;;;;;;;;5914220;28;20124;-67
2023/11/03 01:02:43;;;;;;;1.58;1.05;;;;;;;;;;5911761;28;20053;-67
2023/11/03 01:05:34;;;;;;;3.05;1.85;;;;;;;;;;5911902;28;20515;-67
2023/11/03 01:08:25;;;;;;;1.63;1.25;;;;;;;;;;5911914;28;20215;-68
2023/11/03 01:11:16;;;;;;;1.33;1.23;;;;;;;;;;5911903;28;20049;-68
2023/11/03 01:14:10;;;;;;;0.93;0.82;;;;;;;;;;5911827;28;20051;-69
2023/11/03 01:17:02;;;;;;;1.80;0.90;;;;;;;;;;5911681;28;20052;-69
2023/11/03 01:19:55;;;;;;;0.60;0.60;;;;;;;;;;5912017;28;20048;-69
2023/11/03 01:22:49;;;;;;;4.90;1.73;;;;;;;;;;5911421;28;20048;-68
2023/11/03 01:25:43;;;;;;;1.25;1.10;;;;;;;;;;5927020;28;20098;-69
2023/11/03 01:28:34;;;;;;;1.20;1.10;;;;;;;;;;5911344;28;20493;-69
2023/11/03 01:31:25;;;;;;;2.53;2.00;;;;;;;;;;5911643;28;20044;-68
2023/11/03 01:34:16;;;;;;;1.35;0.70;;;;;;;;;;5911394;28;20040;-68
2023/11/03 01:37:07;;;;;;;6.60;2.17;;;;;;;;;;5909970;28;20079;-69
2023/11/03 01:39:58;;;;;;;0.88;0.88;;;;;;;;;;5911713;28;20070;-69
2023/11/03 01:42:49;;;;;;;3.30;1.33;;;;;;;;;;5911080;28;20040;-69
2023/11/03 01:45:40;;;;;;;0.82;0.82;;;;;;;;;;5911185;28;20561;-69
2023/11/03 01:48:32;;;;;;;0.75;0.75;;;;;;;;;;5910976;28;20543;-68
2023/11/03 01:51:23;;;;;;;1.10;0.90;;;;;;;;;;5911013;28;20140;-69
2023/11/03 01:54:14;;;;;;;1.30;1.20;;;;;;;;;;5910744;28;20418;-69
2023/11/03 01:57:05;;;;;;;1.13;1.02;;;;;;;;;;5909660;28;20170;-69
2023/11/03 01:59:56;;;;;;;16.15;2.03;;;;;;;;;;5909882;28;20049;-69
2023/11/03 02:02:47;;;;;;;1.05;1.00;;;;;;;;;;5910733;28;20047;-68
2023/11/03 02:05:38;;;;;;;2.03;1.60;;;;;;;;;;5910549;28;20101;-68
2023/11/03 02:08:29;;;;;;;1.27;1.13;;;;;;;;;;5910561;28;20056;-69
2023/11/03 02:11:28;;;;;;;2.33;1.83;;;;;;;;;;5910495;28;20052;-69
2023/11/03 02:14:19;;;;;;;;;;;;;;;;;;5909775;28;20052;-69
2023/11/03 02:17:10;;;;;;;2.33;1.58;;;;;;;;;;5910385;28;19928;-69
2023/11/03 02:20:06;;;;;;;2.45;1.38;;;;;;;;;;5910396;28;20486;-69
2023/11/03 02:22:57;;;;;;;1.52;1.13;;;;;;;;;;5910866;28;20150;-69
2023/11/03 02:25:48;;;;;;;1.10;0.70;;;;;;;;;;5910435;28;20060;-69
2023/11/03 02:28:39;;;;;;;2.85;1.50;;;;;;;;;;5910217;28;20056;-69
2023/11/03 02:31:31;;;;;;;1.73;1.10;;;;;;;;;;5910357;28;20059;-68
2023/11/03 02:34:21;;;;;;;3.15;1.30;;;;;;;;;;5908696;28;20048;-69
2023/11/03 02:37:12;;;;;;;1.30;1.05;;;;;;;;;;5910002;28;20201;-69
2023/11/03 02:40:04;;;;;;;1.67;1.42;;;;;;;;;;5909983;28;20637;-69
2023/11/03 02:42:55;;;;;;;2.20;1.27;;;;;;;;;;5910213;28;20052;-69
2023/11/03 02:45:45;;;;;;;1.80;1.42;;;;;;;;;;5909840;28;20125;-68
2023/11/03 02:48:36;;;;;;;1.77;1.40;;;;;;;;;;5909635;28;20048;-69
2023/11/03 02:51:27;;;;;;;0.85;0.85;;;;;;;;;;5925183;28;20040;-68
2023/11/03 02:54:18;;;;;;;1.33;0.95;;;;;;;;;;5909443;28;20052;-70
2023/11/03 02:57:08;;;;;;;12.30;1.67;;;;;;;;;;5909547;28;20079;-70
2023/11/03 02:59:59;;;;;;;2.08;1.52;;;;;;;;;;5909786;28;20051;-69
2023/11/03 03:02:51;;;;;;;0.80;0.77;;;;;;;;;;5909313;28;20059;-69
2023/11/03 03:05:41;;;;;;;2.13;1.10;;;;;;;;;;5908552;28;20098;-69
2023/11/03 03:08:32;;;;;;;6.32;1.75;;;;;;;;;;5909208;28;20055;-70
2023/11/03 03:11:23;;;;;;;1.73;1.35;;;;;;;;;;5909322;28;20389;-69
2023/11/03 03:14:14;;;;;;;1.73;1.40;;;;;;;;;;5909118;28;20055;-69
2023/11/03 03:17:05;;;;;;;1.10;0.95;;;;;;;;;;5909163;28;20071;-70
2023/11/03 03:19:56;;;;;;;1.63;1.17;;;;;;;;;;5909640;28;20417;-69
2023/11/03 03:22:47;;;;;;;1.88;1.35;;;;;;;;;;5908911;28;20048;-70
2023/11/03 03:25:38;;;;;;;1.10;1.00;;;;;;;;;;5908764;28;20052;-70
2023/11/03 03:28:28;;;;;;;1.38;1.25;;;;;;;;;;5907312;28;20052;-69
2023/11/03 03:31:19;;;;;;;0.85;0.82;;;;;;;;;;5908684;28;20070;-70
2023/11/03 03:34:10;;;;;;;1.38;1.20;;;;;;;;;;5908626;28;20060;-70
2023/11/03 03:37:01;;;;;;;0.90;0.90;;;;;;;;;;5908780;28;20421;-70
2023/11/03 03:39:52;;;;;;;1.73;1.27;;;;;;;;;;5908888;28;20133;-69
2023/11/03 03:42:43;;;;;;;0.90;0.80;;;;;;;;;;5908205;28;20036;-69
2023/11/03 03:45:33;;;;;;;4.13;1.33;;;;;;;;;;5908469;28;20040;-69
2023/11/03 03:48:24;;;;;;;0.82;0.80;;;;;;;;;;5908211;28;20048;-69
2023/11/03 03:51:15;;;;;;;1.48;0.82;;;;;;;;;;5908270;28;20413;-69
2023/11/03 03:54:06;;;;;;;10.05;1.38;;;;;;;;;;5908403;28;20052;-70
2023/11/03 03:56:56;;;;;;;1.48;0.80;;;;;;;;;;5908673;28;20055;-69
2023/11/03 03:59:47;;;;;;;2.30;1.10;;;;;;;;;;5908183;28;20458;-69
2023/11/03 04:02:38;;;;;;;0.98;0.88;;;;;;;;;;5908108;28;20048;-70
2023/11/03 04:05:29;;;;;;;2.72;1.08;;;;;;;;;;5908221;28;20044;-69
2023/11/03 04:08:20;;;;;;;2.22;1.38;;;;;;;;;;5907800;28;20049;-69
2023/11/03 04:11:12;;;;;;;1.10;1.00;;;;;;;;;;5907913;28;20505;-69
2023/11/03 04:14:03;;;;;;;1.08;0.80;;;;;;;;;;5908022;28;20693;-70
2023/11/03 04:16:54;;;;;;;1.08;0.95;;;;;;;;;;5908316;28;20063;-69
2023/11/03 04:19:45;;;;;;;1.98;1.08;;;;;;;;;;5907143;28;20049;-69
2023/11/03 04:22:36;;;;;;;1.20;1.08;;;;;;;;;;5907859;28;20045;-68
2023/11/03 04:25:26;;;;;;;22.13;1.05;;;;;;;;;;5908208;28;20514;-69
2023/11/03 04:28:18;;;;;;;1.38;0.95;;;;;;;;;;5907804;28;20067;-70
2023/11/03 04:31:08;;;;;;;0.65;0.65;;;;;;;;;;5907803;28;20410;-69
2023/11/03 04:34:00;;;;;;;1.45;1.02;;;;;;;;;;5908289;28;20818;-69
2023/11/03 04:36:50;;;;;;;3.08;1.38;;;;;;;;;;5908029;28;20086;-69
2023/11/03 04:39:41;;;;;;;1.45;1.08;;;;;;;;;;5907580;28;20505;-68
2023/11/03 04:42:32;;;;;;;1.00;0.63;;;;;;;;;;5907651;28;20123;-70
2023/11/03 04:45:25;;;;;;;2.10;1.23;;;;;;;;;;5907610;28;20048;-69
2023/11/03 04:48:16;;;;;;;0.98;0.75;;;;;;;;;;5907552;28;20048;-69
2023/11/03 04:51:10;;;;;;;1.80;1.02;;;;;;;;;;5907608;28;20048;-69
2023/11/03 04:54:01;;;;;;;1.98;0.90;;;;;;;;;;5907788;28;20130;-69
2023/11/03 04:56:52;;;;;;;3.05;0.98;;;;;;;;;;5908033;28;20051;-69
2023/11/03 04:59:45;;;;;;;1.27;0.70;;;;;;;;;;5907739;28;20052;-69
2023/11/03 05:02:36;;;;;;;0.65;0.60;;;;;;;;;;5907394;28;20047;-69
2023/11/03 05:05:32;;;;;;;0.50;0.40;;;;;;;;;;5907488;28;20045;-70
2023/11/03 05:08:23;;;;;;;1.48;1.02;;;;;;;;;;5907462;28;20044;-69
2023/11/03 05:11:14;;;;;;;0.90;0.63;;;;;;;;;;5905958;28;20493;-69
2023/11/03 05:14:05;;;;;;;0.90;0.82;;;;;;;;;;5907306;28;20049;-68
2023/11/03 05:16:56;;;;;;;0.77;0.60;;;;;;;;;;5907776;28;20087;-68
2023/11/03 05:19:48;;;;;;;1.13;0.90;;;;;;;;;;5907309;28;20040;-68
2023/11/03 05:22:39;;;;;;;3.83;1.52;;;;;;;;;;5907212;28;20040;-68
2023/11/03 05:25:30;;;;;;;0.32;0.32;;;;;;;;;;5907344;28;20517;-68
2023/11/03 05:28:21;;;;;;;0.22;0.22;;;;;;;;;;5907286;28;20078;-68
2023/11/03 05:31:13;;;;;;;1.02;0.60;;;;;;;;;;5911210;28;20124;-68
2023/11/03 05:34:03;;;;;;;0.68;0.65;;;;;;;;;;5911611;28;20524;-68
2023/11/03 05:36:54;;;;;;;0.50;0.50;;;;;;;;;;5911768;28;20140;-68
2023/11/03 05:39:45;;;;;;;3.42;1.15;;;;;;;;;;5911360;28;20041;-68
2023/11/03 05:42:36;;;;;;;2.03;1.40;;;;;;;;;;5911204;28;20051;-67
2023/11/03 05:45:27;;;;;;;0.73;0.55;;;;;;;;;;5911140;28;20048;-68
2023/11/03 05:48:17;;;;;;;0.73;0.60;;;;;;;;;;5911093;28;20052;-68
2023/11/03 05:51:08;;;;;;;0.47;0.47;;;;;;;;;;5910893;28;20494;-67
2023/11/03 05:53:59;;;;;;;0.82;0.55;;;;;;;;;;5911412;28;20056;-67
2023/11/03 05:56:50;;;;;;;2.17;0.60;;;;;;;;;;5911031;28;20100;-67
2023/11/03 05:59:40;;;;;;;1.42;0.95;;;;;;;;;;5910710;28;20044;-67
2023/11/03 06:02:31;;;;;;;0.45;0.45;;;;;;;;;;5909515;28;20044;-67
2023/11/03 06:05:22;;;;;;;0.82;0.63;;;;;;;;;;5910646;28;20056;-67
2023/11/03 06:08:12;;;;;;;0.40;0.40;;;;;;;;;;5910574;28;20056;-67
2023/11/03 06:11:04;;;;;;;3.05;1.13;;;;;;;;;;5910683;28;20052;-68
2023/11/03 06:13:55;;;;;;;0.43;0.32;;;;;;;;;;5910783;28;20060;-67
2023/11/03 06:16:46;;;;;;;0.60;0.60;;;;;;;;;;5910458;28;20049;-67
2023/11/03 06:19:37;;;;;;;1.45;0.82;;;;;;;;;;5910486;28;20044;-67
2023/11/03 06:22:28;;;;;;;0.40;0.40;;;;;;;;;;5910496;28;20047;-67
2023/11/03 06:25:19;;;;;;;4.15;1.48;;;;;;;;;;5910228;28;20391;-67
2023/11/03 06:28:11;;;;;;;1.55;1.45;;;;;;;;;;5910252;28;20052;-67
2023/11/03 06:31:03;;;;;;;1.35;1.08;;;;;;;;;;5910100;28;20155;-68
2023/11/03 06:33:53;;;;;;;3.30;1.58;;;;;;;;;;5910567;28;20085;-67
2023/11/03 06:36:44;;;;;;;4.38;2.20;;;;;;;;;;5911089;28;20525;-67
2023/11/03 06:39:39;;;;;;;5.78;0.93;;;;;;;;;;5910160;28;20051;-67
2023/11/03 06:42:30;;;;;;;2.75;1.40;;;;;;;;;;5924326;28;20056;-67
2023/11/03 06:45:21;;;;;;;8.45;1.58;;;;;;;;;;5909519;28;20098;-67
2023/11/03 06:48:12;;;;;;;2.30;1.55;;;;;;;;;;5909577;28;20049;-67
2023/11/03 06:51:12;;;;;;;10.63;1.45;;;;;;;;;;5909583;28;20053;-68
2023/11/03 06:54:04;;;;;;;1.25;0.90;;;;;;;;;;5909653;28;20044;-68
2023/11/03 06:56:55;;;;;;;1.27;0.95;;;;;;;;;;5910276;28;20056;-67
2023/11/03 06:59:47;;;;;;;5.82;2.13;;;;;;;;;;5909559;28;20611;-67
2023/11/03 07:02:38;;;;;;;2.63;1.42;;;;;;;;;;5909413;28;20141;-67
2023/11/03 07:05:30;;;;;;;2.35;1.27;;;;;;;;;;5909425;28;20049;-67
2023/11/03 07:08:21;;;;;;;0.88;0.85;;;;;;;;;;5909276;28;20060;-67
2023/11/03 07:11:12;;;;;;;1.80;1.17;;;;;;;;;;5909214;28;20052;-68
2023/11/03 07:14:05;;;;;;;1.48;1.00;;;;;;;;;;5909106;28;20048;-68
2023/11/03 07:16:56;;;;;;;0.60;0.60;;;;;;;;;;5909693;28;20052;-67
2023/11/03 07:19:47;;;;;;;1.15;1.00;;;;;;;;;;5909137;28;20068;-67
2023/11/03 07:22:38;;;;;;;1.63;0.88;;;;;;;;;;5908896;28;20440;-67
2023/11/03 07:25:29;;;;;;;10.60;1.10;;;;;;;;;;5909088;28;20052;-67
2023/11/03 07:28:20;;;;;;;0.47;0.45;;;;;;;;;;5908563;28;20049;-67
2023/11/03 07:31:11;;;;;;;0.88;0.85;;;;;;;;;;5902694;28;20052;-67
2023/11/03 07:34:03;;;;;;;25.90;1.45;;;;;;;;;;5894846;28;20053;-68
2023/11/03 07:36:56;;;;;;;0.65;0.65;;;;;;;;;;5902109;28;20131;-67
2023/11/03 07:39:49;;;;;;;2.40;0.95;;;;;;;;;;5886303;28;20122;-67
2023/11/03 07:42:40;;;;;;;1.20;0.63;;;;;;;;;;5886018;28;20126;-67
2023/11/03 07:45:34;;;;;;;2.28;1.27;;;;;;;;;;5886820;28;20098;-67
2023/11/03 07:48:25;;;;;;;5.13;2.30;;;;;;;;;;5886692;28;20052;-67
2023/11/03 07:51:16;;;;;;;23.92;13.55;;;;;;;;;;5885286;28;20091;-68
2023/11/03 07:54:07;;;;;;;318.13;149.40;;;;;;;;;;5886376;28;20044;-68
2023/11/03 07:56:58;;;;;;;199.40;74.30;;;;;;;;;;5887043;28;20418;-67
2023/11/03 07:59:51;;;;;;;77.00;28.52;;;;;;;;;;5887170;28;20060;-67
2023/11/03 08:02:42;;;;;;;66.10;27.15;;;;;;;;;;5901889;28;20051;-67
2023/11/03 08:05:34;;;;;;;121.28;65.95;;;;;;;;;;5909719;28;20117;-68
2023/11/03 08:08:27;;;;;;;122.55;39.28;;;;;;;;;;5889462;28;20045;-67
2023/11/03 08:11:18;;;;;;;149.43;55.83;;;;;;;;;;5886360;28;20049;-67
2023/11/03 08:14:11;;;;;;;20.70;8.82;;;;;;;;;;5884747;28;20057;-67
2023/11/03 08:17:03;;;;;;;53.67;26.15;;;;;;;;;;5886278;28;20049;-69
2023/11/03 08:19:54;;;;;;;66.50;25.15;;;;;;;;;;5886341;28;20103;-67
2023/11/03 08:22:48;;;;;;;24.55;11.27;;;;;;;;;;5886201;28;20064;-67
2023/11/03 08:25:39;;;;;;;27.15;10.13;;;;;;;;;;5886149;28;20051;-68
2023/11/03 08:28:29;;;;;;;69.93;25.50;;;;;;;;;;5886281;28;20049;-67
2023/11/03 08:31:20;;;;;;;34.53;12.50;;;;;;;;;;5886047;28;20091;-68
2023/11/03 08:34:12;;;;;;;46.80;15.13;;;;;;;;;;5886158;28;20056;-68
2023/11/03 08:37:04;;;;;;;32.15;11.27;;;;;;;;;;5886238;28;20053;-68
2023/11/03 08:39:55;;;;;;;32.83;11.80;;;;;;;;;;5886881;28;20044;-67
2023/11/03 08:42:46;;;;;;;59.72;13.95;;;;;;;;;;5886030;28;20053;-68
2023/11/03 08:45:37;;;;;;;37.90;13.90;;;;;;;;;;5885824;28;20049;-68
2023/11/03 08:48:29;;;;;;;40.22;13.50;;;;;;;;;;5883756;28;20041;-68
2023/11/03 08:51:20;;;;;;;32.17;10.77;;;;;;;;;;5883536;28;20111;-67
2023/11/03 08:54:14;;;;;;;16.90;5.18;;;;;;;;;;5885317;28;20418;-67
2023/11/03 08:57:06;;;;;;;14.35;5.05;;;;;;;;;;5885977;28;20052;-68
2023/11/03 08:59:57;;;;;;;36.10;12.70;;;;;;;;;;5886474;28;20053;-67
2023/11/03 09:02:48;;;;;;;10.52;4.38;;;;;;;;;;5885748;28;20056;-68
2023/11/03 09:05:39;;;;;;;45.90;15.90;;;;;;;;;;5889274;28;20049;-67
2023/11/03 09:08:30;;;;;;;20.63;6.07;;;;;;;;;;5890230;28;20068;-68
2023/11/03 09:11:21;;;;;;;10.82;2.63;;;;;;;;;;5890251;28;20403;-68
2023/11/03 09:14:12;;;;;;;7.35;3.08;;;;;;;;;;5889442;28;20704;-68
2023/11/03 09:17:04;;;;;;;50.17;16.60;;;;;;;;;;5890165;28;20045;-68
2023/11/03 09:19:58;;;;;;;28.38;11.25;;;;;;;;;;5890466;28;20049;-67
2023/11/03 09:22:50;;;;;;;62.38;21.05;;;;;;;;;;5889972;28;20194;-68
2023/11/03 09:25:42;;;;;;;22.52;8.75;;;;;;;;;;5889779;28;20064;-68
2023/11/03 09:28:34;;;;;;;17.08;6.75;;;;;;;;;;5889753;28;20049;-68
2023/11/03 09:31:25;;;;;;;5.32;2.63;;;;;;;;;;5889539;28;20045;-67
2023/11/03 09:34:16;;;;;;;23.13;6.97;;;;;;;;;;5889232;28;20534;-67
2023/11/03 09:37:07;;;;;;;6.32;4.25;;;;;;;;;;5889480;28;20081;-68
2023/11/03 09:39:58;;;;;;;46.00;21.73;;;;;;;;;;5880733;28;20052;-67
2023/11/03 09:42:49;;;;;;;12.60;5.15;;;;;;;;;;5910195;28;20044;-67
2023/11/03 09:45:42;;;;;;;19.38;7.57;;;;;;;;;;5895296;28;20123;-68
2023/11/03 09:48:33;;;;;;;12.10;6.00;;;;;;;;;;5888097;28;20048;-68
2023/11/03 09:51:27;;;;;;;29.05;10.85;;;;;;;;;;5888963;28;20550;-67
2023/11/03 09:54:18;;;;;;;10.02;4.75;;;;;;;;;;5902873;28;20045;-67
2023/11/03 09:57:13;;;;;;;3.25;2.40;;;;;;;;;;5889723;28;20049;-67
2023/11/03 10:00:06;;;;;;;7.75;5.38;;;;;;;;;;5889438;28;20060;-67
2023/11/03 10:02:56;;;;;;;7.70;4.80;;;;;;;;;;5889578;28;20048;-67
2023/11/03 10:05:48;;;;;;;30.52;13.65;;;;;;;;;;5888050;28;20045;-67
2023/11/03 10:08:45;;;;;;;31.52;15.88;;;;;;;;;;5888957;28;20091;-67
2023/11/03 10:11:37;;;;;;;63.70;28.65;;;;;;;;;;5888955;28;20052;-67
2023/11/03 10:14:28;;;;;;;14.93;8.13;;;;;;;;;;5889092;28;20615;-67
2023/11/03 10:17:18;;;;;;;8.52;4.97;;;;;;;;;;5889107;28;20049;-67
2023/11/03 10:20:12;;;;;;;21.75;6.78;;;;;;;;;;5888730;28;20059;-67
2023/11/03 10:23:02;;;;;;;15.82;6.63;;;;;;;;;;5888714;28;20051;-67
2023/11/03 10:25:53;;;;;;;10.38;6.18;;;;;;;;;;5888996;28;20060;-68
2023/11/03 10:28:45;;;;;;;2.17;1.80;;;;;;;;;;5887273;28;20051;-67
2023/11/03 10:31:35;;;;;;;7.40;2.65;;;;;;;;;;5889086;28;20045;-68
2023/11/03 10:34:29;;;;;;;2.08;1.17;;;;;;;;;;5888191;28;20041;-68
2023/11/03 10:37:21;;;;;;;4.43;1.88;;;;;;;;;;5887339;28;20056;-67
2023/11/03 10:40:13;;;;;;;1.33;1.17;;;;;;;;;;5888095;28;20056;-68
2023/11/03 10:43:07;;;;;;;8.85;3.33;;;;;;;;;;5888021;28;20487;-68
2023/11/03 10:46:10;;;;;;;12.18;5.90;;;;;;;;;;5888973;28;20052;-68
2023/11/03 10:49:34;;;;;;;3.20;1.85;;;;;;;;;;5886653;28;20104;-69
2023/11/03 10:52:29;;;;;;;3.03;2.28;;;;;;;;;;5888158;28;20045;-68
2023/11/03 10:55:38;;;;;;;6.53;3.33;;;;;;;;;;5879752;28;20410;-68
2023/11/03 10:58:30;;;;;;;15.13;3.25;;;;;;;;;;5886903;28;20071;-68
2023/11/03 11:01:39;;;;;;;8.90;3.15;;;;;;;;;;5888128;28;20052;-68
2023/11/03 11:04:42;;;;;;;7.22;3.00;;;;;;;;;;5886186;28;20061;-68
2023/11/03 11:07:35;;;;;;;2.20;1.15;;;;;;;;;;5887020;28;20124;-68
2023/11/03 11:10:41;;;;;;;3.15;2.35;;;;;;;;;;5886285;28;20049;-68
2023/11/03 11:13:32;;;;;;;4.47;2.95;;;;;;;;;;5887339;28;20041;-68
2023/11/03 11:16:24;;;;;;;5.30;3.08;;;;;;;;;;5886632;28;20095;-68
2023/11/03 11:19:18;;;;;;;6.20;1.52;;;;;;;;;;5887167;28;20572;-69
2023/11/03 11:22:17;;;;;;;3.72;2.85;;;;;;;;;;5886561;28;20044;-69
2023/11/03 11:25:10;;;;;;;5.97;2.75;;;;;;;;;;5887059;28;20048;-69
2023/11/03 11:28:01;;;;;;;20.98;8.23;;;;;;;;;;5886915;28;20159;-69
2023/11/03 11:30:52;;;;;;;17.48;3.05;;;;;;;;;;5887589;28;20041;-68
2023/11/03 11:34:15;;;;;;;3.17;2.88;;;;;;;;;;5887238;28;20122;-69
2023/11/03 11:37:30;;;;;;;2.00;1.83;;;;;;;;;;5869202;28;20048;-69
2023/11/03 11:40:21;;;;;;;4.13;2.08;;;;;;;;;;5883557;28;20074;-69
2023/11/03 11:43:12;;;;;;;2.97;2.42;;;;;;;;;;5887024;28;20049;-69
2023/11/03 11:46:12;;;;;;;2.20;1.73;;;;;;;;;;5885778;28;20051;-69
2023/11/03 11:49:03;;;;;;;1.73;1.20;;;;;;;;;;5885078;28;20064;-70
2023/11/03 11:51:59;;;;;;;2.22;2.00;;;;;;;;;;5885760;28;20053;-70
2023/11/03 11:54:51;;;;;;;10.50;5.05;;;;;;;;;;5884996;28;20041;-70
2023/11/03 11:57:43;;;;;;;8.20;4.95;;;;;;;;;;5886382;28;20048;-70
2023/11/03 12:00:39;;;;;;;6.05;3.53;;;;;;;;;;5886897;28;20053;-70
2023/11/03 12:03:29;;;;;;;7.28;3.83;;;;;;;;;;5886894;28;20513;-71
2023/11/03 12:06:20;;;;;;;10.70;5.25;;;;;;;;;;5885722;28;20535;-71
2023/11/03 12:09:15;;;;;;;3.00;2.67;;;;;;;;;;5896756;28;20429;-72
2023/11/03 12:12:07;;;;;;;7.57;4.88;;;;;;;;;;5887261;28;20045;-72
2023/11/03 12:15:00;;;;;;;2.78;1.63;;;;;;;;;;5887117;28;20060;-73
2023/11/03 12:17:51;;;;;;;15.00;9.52;;;;;;;;;;5886909;28;20049;-72
2023/11/03 12:20:58;;;;;;;26.02;11.10;;;;;;;;;;5886319;28;20360;-73
2023/11/03 12:23:50;;;;;;;36.65;22.25;;;;;;;;;;5886410;28;20124;-72
2023/11/03 12:26:41;;;;;;;32.88;14.13;;;;;;;;;;5886869;28;20052;-72
2023/11/03 12:29:36;;;;;;;124.22;46.47;;;;;;;;;;5886432;28;20060;-72
2023/11/03 12:32:27;;;;;;;27.60;12.45;;;;;;;;;;5885680;28;20052;-72
2023/11/03 12:35:18;;;;;;;72.65;31.60;;;;;;;;;;5885074;28;20056;-72
2023/11/03 12:38:09;;;;;;;89.97;37.95;;;;;;;;;;5886400;28;20502;-72
2023/11/03 12:41:16;;;;;;;71.50;21.90;;;;;;;;;;5890883;28;20053;-72
2023/11/03 12:44:07;;;;;;;5.43;3.33;;;;;;;;;;5882047;28;20045;-72
2023/11/03 12:47:00;;;;;;;26.48;8.45;;;;;;;;;;5906383;28;20581;-72
2023/11/03 12:50:28;;;;;;;46.45;22.45;;;;;;;;;;5890993;28;20045;-72
2023/11/03 12:53:19;;;;;;;36.53;12.02;;;;;;;;;;5890638;28;20045;-72
2023/11/03 12:56:11;;;;;;;39.53;16.55;;;;;;;;;;5889845;28;20049;-72
2023/11/03 12:59:04;;;;;;;55.47;24.33;;;;;;;;;;5889205;28;20059;-72
2023/11/03 13:01:55;;;;;;;27.33;11.35;;;;;;;;;;5891782;28;20053;-73
2023/11/03 13:04:45;;;;;;;24.98;6.78;;;;;;;;;;5890793;28;20502;-72
2023/11/03 13:07:38;;;;;;;25.02;12.02;;;;;;;;;;5891123;28;20041;-72
2023/11/03 13:10:30;;;;;;;81.57;32.47;;;;;;;;;;5890273;28;20439;-73
2023/11/03 13:13:21;;;;;;;32.72;14.75;;;;;;;;;;5890596;28;20506;-73
2023/11/03 13:16:13;;;;;;;43.05;17.80;;;;;;;;;;5890644;28;20053;-72
2023/11/03 13:19:05;;;;;;;19.23;8.90;;;;;;;;;;5888995;28;20072;-72
2023/11/03 13:21:57;;;;;;;21.00;9.23;;;;;;;;;;5891232;28;20049;-73
2023/11/03 13:24:47;;;;;;;29.67;14.65;;;;;;;;;;5890036;28;20494;-72
2023/11/03 13:27:40;;;;;;;19.70;7.20;;;;;;;;;;5889411;28;20045;-72
2023/11/03 13:30:31;;;;;;;18.23;7.82;;;;;;;;;;5889933;28;20123;-73
2023/11/03 13:33:22;;;;;;;19.75;8.13;;;;;;;;;;5890436;28;20097;-73
2023/11/03 13:36:13;;;;;;;43.25;18.08;;;;;;;;;;5890359;28;20053;-73
2023/11/03 13:39:06;;;;;;;102.22;32.58;;;;;;;;;;5889345;28;20056;-72
2023/11/03 13:41:57;;;;;;;65.10;24.17;;;;;;;;;;5891253;28;20064;-73
2023/11/03 13:44:47;;;;;;;45.63;17.85;;;;;;;;;;5889750;28;20041;-73
2023/11/03 13:47:39;;;;;;;49.92;15.73;;;;;;;;;;5890105;28;20045;-73
2023/11/03 13:50:30;;;;;;;35.10;10.95;;;;;;;;;;5889103;28;20517;-73
2023/11/03 13:53:21;;;;;;;11.77;5.43;;;;;;;;;;5889613;28;20380;-73
2023/11/03 13:56:12;;;;;;;9.02;3.10;;;;;;;;;;5889083;28;20499;-73
2023/11/03 13:59:03;;;;;;;14.32;5.95;;;;;;;;;;5889165;28;20049;-72
2023/11/03 14:01:54;;;;;;;10.02;3.80;;;;;;;;;;5890426;28;20055;-73
2023/11/03 14:04:45;;;;;;;39.53;16.08;;;;;;;;;;5889290;28;20048;-73
2023/11/03 14:07:39;;;;;;;26.35;12.90;;;;;;;;;;5889799;28;20045;-73
2023/11/03 14:10:31;;;;;;;37.65;16.45;;;;;;;;;;5888900;28;20388;-73
2023/11/03 14:13:21;;;;;;;40.38;14.55;;;;;;;;;;5889603;28;20411;-73
2023/11/03 14:16:12;;;;;;;34.42;15.48;;;;;;;;;;5889397;28;20081;-73
2023/11/03 14:19:03;;;;;;;18.02;9.77;;;;;;;;;;5888968;28;20053;-72
2023/11/03 14:21:54;;;;;;;60.25;23.63;;;;;;;;;;5888949;28;20049;-73
2023/11/03 14:24:45;;;;;;;23.40;10.20;;;;;;;;;;5888289;28;20049;-73
2023/11/03 14:27:38;;;;;;;23.33;8.20;;;;;;;;;;5883936;28;20041;-73
2023/11/03 14:30:29;;;;;;;22.88;9.27;;;;;;;;;;5904407;28;20095;-73
2023/11/03 14:33:20;;;;;;;20.90;8.52;;;;;;;;;;5888905;28;20056;-73
2023/11/03 14:36:14;;;;;;;21.38;8.50;;;;;;;;;;5888867;28;20060;-73
2023/11/03 14:39:04;;;;;;;23.40;12.55;;;;;;;;;;5888709;28;20049;-73
2023/11/03 14:41:55;;;;;;;21.58;3.13;;;;;;;;;;5889701;28;20048;-73
2023/11/03 14:44:46;;;;;;;5.50;3.45;;;;;;;;;;5888041;28;20049;-73
2023/11/03 14:47:37;;;;;;;10.32;4.45;;;;;;;;;;5889013;28;20041;-73
2023/11/03 14:50:28;;;;;;;15.25;7.60;;;;;;;;;;5888732;28;20513;-73
2023/11/03 14:53:19;;;;;;;7.32;3.28;;;;;;;;;;5887951;28;20049;-73
2023/11/03 14:56:10;;;;;;;25.85;16.88;;;;;;;;;;5888758;28;20059;-73
2023/11/03 14:59:01;;;;;;;280.52;102.75;;;;;;;;;;5888427;28;20053;-73
2023/11/03 15:01:54;;;;;;;42.22;19.83;;;;;;;;;;5888267;28;20144;-74
2023/11/03 15:04:45;;;;;;;27.30;11.95;;;;;;;;;;5887798;28;20410;-73
2023/11/03 15:07:38;;;;;;;18.25;8.30;;;;;;;;;;5888325;28;20560;-73
2023/11/03 15:10:32;;;;;;;40.38;15.90;;;;;;;;;;5887907;28;20047;-73
2023/11/03 15:13:23;;;;;;;6.57;3.47;;;;;;;;;;5854376;28;20094;-73
2023/11/03 15:16:17;;;;;;;29.73;7.78;;;;;;;;;;5886486;28;20056;-73
2023/11/03 15:19:09;;;;;;;3.17;1.92;;;;;;;;;;5887895;28;20417;-73
2023/11/03 15:22:01;;;;;;;3.05;1.73;;;;;;;;;;5888741;28;20060;-75
2023/11/03 15:24:52;;;;;;;21.08;8.02;;;;;;;;;;5887153;28;20045;-75
2023/11/03 15:27:44;;;;;;;17.80;8.63;;;;;;;;;;5888065;28;20053;-75
2023/11/03 15:30:35;;;;;;;31.70;12.25;;;;;;;;;;5886621;28;20045;-74
2023/11/03 15:33:26;;;;;;;128.18;40.63;;;;;;;;;;5887207;28;20071;-74
2023/11/03 15:36:17;;;;;;;51.97;18.20;;;;;;;;;;5887768;28;20072;-74
2023/11/03 15:39:20;;;;;;;35.90;13.40;;;;;;;;;;5885963;28;20049;-74
2023/11/03 15:42:12;;;;;;;10.40;4.95;;;;;;;;;;5879276;28;20419;-74
2023/11/03 15:45:04;;;;;;;23.20;11.13;;;;;;;;;;5900199;28;20055;-73
2023/11/03 15:47:57;;;;;;;6.53;3.70;;;;;;;;;;5888075;28;20130;-74
2023/11/03 15:50:50;;;;;;;35.20;12.27;;;;;;;;;;5906379;28;20043;-74
2023/11/03 15:53:42;;;;;;;10.48;5.05;;;;;;;;;;5907043;28;20052;-75
2023/11/03 15:56:33;;;;;;;21.08;11.18;;;;;;;;;;5887583;28;20044;-73
2023/11/03 15:59:23;;;;;;;25.25;12.00;;;;;;;;;;5887044;28;20418;-73
2023/11/03 16:02:14;;;;;;;34.30;11.68;;;;;;;;;;5887013;28;20044;-73
2023/11/03 16:05:06;;;;;;;7.65;2.88;;;;;;;;;;5886555;28;20067;-73
2023/11/03 16:07:57;;;;;;;30.38;12.00;;;;;;;;;;5886592;28;20049;-73
2023/11/03 16:10:48;;;;;;;33.95;14.93;;;;;;;;;;5886101;28;20406;-73
2023/11/03 16:13:39;;;;;;;32.50;14.73;;;;;;;;;;5886107;28;20048;-73
2023/11/03 16:16:30;;;;;;;27.15;13.00;;;;;;;;;;5886960;28;20513;-73
2023/11/03 16:19:21;;;;;;;10.82;4.38;;;;;;;;;;5886057;28;20413;-73
2023/11/03 16:22:12;;;;;;;14.50;8.18;;;;;;;;;;5887212;28;20406;-73
2023/11/03 16:25:03;;;;;;;17.15;6.65;;;;;;;;;;5885966;28;20057;-73
2023/11/03 16:27:55;;;;;;;5.88;3.75;;;;;;;;;;5887331;28;20131;-73
2023/11/03 16:30:46;;;;;;;18.52;6.90;;;;;;;;;;5886546;28;20041;-73
2023/11/03 16:33:37;;;;;;;10.48;4.78;;;;;;;;;;5886528;28;20048;-73
2023/11/03 16:36:29;;;;;;;18.92;8.68;;;;;;;;;;5886449;28;20049;-73
2023/11/03 16:39:20;;;;;;;18.33;8.40;;;;;;;;;;5886026;28;20195;-73
2023/11/03 16:42:11;;;;;;;17.33;8.68;;;;;;;;;;5886921;28;20049;-72
2023/11/03 16:45:02;;;;;;;27.83;11.88;;;;;;;;;;5885879;28;20053;-72
2023/11/03 16:47:54;;;;;;;18.25;6.88;;;;;;;;;;5887252;28;21433;-72
2023/11/03 16:50:45;;;;;;;28.05;14.77;;;;;;;;;;5886409;28;20128;-72
2023/11/03 16:53:37;;;;;;;5.97;3.00;;;;;;;;;;5884710;28;20041;-72
2023/11/03 16:56:28;;;;;;;34.60;13.07;;;;;;;;;;5886254;28;20052;-72
2023/11/03 16:59:20;;;;;;;11.00;4.45;;;;;;;;;;5885998;28;20140;-72